Aérodrome :
LOGIN :

S'inscrire | Disclaimer

   EN    FR    IT 

 










Légende :    VFR   VFR Marginal   IFR   IFR Intensif   IFR Très Intensif
Visi : 
Plafond : 
>= 8 km
>= 3000ft
5 à 8 km
1000 à 3000 ft
1500m à 5 km
500 à 1000 ft
800 à 1500m
200 à 500 ft
< 800m
< 200 ft
Symboles :   Orages  Brouillard  Fortes neiges  Fortes précipitations  Vent > 20 kt
SIGMETs :   Divers  Orages  Givrage  Turbulence  Onde Orograph.  Cendres Volcan.






- Altitude de l'aérodrome : 161 ft
- Code IATA : TKU


EFTU - Turku

DERNIER METAR :
  • 211550Z AUTO 13010KT 110V170 9999 OVC017 03/M00 Q1030

METARs EXPIRÉS :
  • 211520Z AUTO 12007KT 9999 OVC018 03/00 Q1030
  • 211450Z AUTO 12007KT 9999 OVC017 03/M00 Q1030
  • 211420Z AUTO 11008KT 9999 OVC017 03/M00 Q1030
  • 211350Z AUTO 12007KT 9999 OVC016 03/00 Q1030
  • 211320Z AUTO 13008KT 9999 OVC011 03/00 Q1030
  • 211250Z AUTO 13009KT 100V170 9999 OVC007 03/01 Q1030

TAF TAF EFTU
Valide du 21 à 15h jusqu'au 22 à 15h UTC


211430Z 2115/2215 12008KT 9999 BKN018
PROB40
TEMPO 2115/2206 BKN013



MET'MAP, la Météo Aéronautique d'un coup d'oeil ! - Copyright ORBIFLY Décembre 2007 - Disclaimer

ORBIFLY MET'MAP TEAM :

Programmation & Développement : Alexandra Zaïnal
Conception & Développement : Baudouin d'Aumeries
Co-Programmation & Développement : Marc-Olivier Méhu
Soutien technique & logistique : Manuel Goepfert

Contact : metmap@orbifly.com




SOURCES & CREDITS :

   NOAA